sensor_id;sensor_type;location;lat;lon;timestamp;P1;durP1;ratioP1;P2;durP2;ratioP2
39982;SDS011;25670;44.782;10.356;2023-05-15T00:02:14;16.27;;;7.63;;
39982;SDS011;25670;44.782;10.356;2023-05-15T00:04:41;12.18;;;7.78;;
39982;SDS011;25670;44.782;10.356;2023-05-15T00:07:07;7.10;;;6.50;;
39982;SDS011;25670;44.782;10.356;2023-05-15T00:09:33;7.25;;;6.70;;
39982;SDS011;25670;44.782;10.356;2023-05-15T00:11:59;9.10;;;7.20;;
39982;SDS011;25670;44.782;10.356;2023-05-15T00:14:26;7.63;;;6.43;;
39982;SDS011;25670;44.782;10.356;2023-05-15T00:16:52;7.18;;;6.53;;
39982;SDS011;25670;44.782;10.356;2023-05-15T00:19:18;14.65;;;6.97;;
39982;SDS011;25670;44.782;10.356;2023-05-15T00:21:44;7.05;;;6.47;;
39982;SDS011;25670;44.782;10.356;2023-05-15T00:24:10;10.43;;;6.78;;
39982;SDS011;25670;44.782;10.356;2023-05-15T00:26:36;6.95;;;5.95;;
39982;SDS011;25670;44.782;10.356;2023-05-15T00:29:03;6.80;;;6.18;;
39982;SDS011;25670;44.782;10.356;2023-05-15T00:31:29;7.97;;;5.90;;
39982;SDS011;25670;44.782;10.356;2023-05-15T00:33:57;6.53;;;6.13;;
39982;SDS011;25670;44.782;10.356;2023-05-15T00:36:24;7.63;;;5.63;;
39982;SDS011;25670;44.782;10.356;2023-05-15T00:38:51;7.55;;;6.03;;
39982;SDS011;25670;44.782;10.356;2023-05-15T00:41:18;6.50;;;5.90;;
39982;SDS011;25670;44.782;10.356;2023-05-15T00:43:48;6.15;;;5.47;;
39982;SDS011;25670;44.782;10.356;2023-05-15T00:46:16;8.52;;;5.78;;
39982;SDS011;25670;44.782;10.356;2023-05-15T00:48:44;6.13;;;5.70;;
39982;SDS011;25670;44.782;10.356;2023-05-15T00:51:11;12.80;;;5.57;;
39982;SDS011;25670;44.782;10.356;2023-05-15T00:53:37;5.47;;;5.07;;
39982;SDS011;25670;44.782;10.356;2023-05-15T00:56:04;7.97;;;4.90;;
39982;SDS011;25670;44.782;10.356;2023-05-15T00:58:32;5.20;;;4.72;;
39982;SDS011;25670;44.782;10.356;2023-05-15T01:00:59;12.82;;;5.18;;
39982;SDS011;25670;44.782;10.356;2023-05-15T01:03:25;6.50;;;4.97;;
39982;SDS011;25670;44.782;10.356;2023-05-15T01:05:51;8.80;;;5.30;;
39982;SDS011;25670;44.782;10.356;2023-05-15T01:08:19;8.57;;;4.47;;
39982;SDS011;25670;44.782;10.356;2023-05-15T01:10:58;5.63;;;4.20;;
39982;SDS011;25670;44.782;10.356;2023-05-15T01:13:27;9.23;;;4.80;;
39982;SDS011;25670;44.782;10.356;2023-05-15T01:15:53;7.40;;;4.32;;
39982;SDS011;25670;44.782;10.356;2023-05-15T01:18:19;4.22;;;4.03;;
39982;SDS011;25670;44.782;10.356;2023-05-15T01:20:55;7.93;;;4.53;;
39982;SDS011;25670;44.782;10.356;2023-05-15T01:28:57;5.93;;;4.10;;
39982;SDS011;25670;44.782;10.356;2023-05-15T01:31:45;8.10;;;3.70;;
39982;SDS011;25670;44.782;10.356;2023-05-15T01:34:16;4.32;;;4.03;;
39982;SDS011;25670;44.782;10.356;2023-05-15T01:36:47;5.85;;;3.78;;
39982;SDS011;25670;44.782;10.356;2023-05-15T01:39:18;4.93;;;3.67;;
39982;SDS011;25670;44.782;10.356;2023-05-15T01:41:54;11.35;;;3.58;;
39982;SDS011;25670;44.782;10.356;2023-05-15T01:44:27;5.50;;;2.92;;
39982;SDS011;25670;44.782;10.356;2023-05-15T01:46:57;7.65;;;3.15;;
39982;SDS011;25670;44.782;10.356;2023-05-15T01:49:26;3.67;;;2.83;;
39982;SDS011;25670;44.782;10.356;2023-05-15T01:51:59;3.80;;;2.90;;
39982;SDS011;25670;44.782;10.356;2023-05-15T01:54:31;3.28;;;2.95;;
39982;SDS011;25670;44.782;10.356;2023-05-15T01:56:58;2.50;;;2.40;;
39982;SDS011;25670;44.782;10.356;2023-05-15T01:59:25;3.33;;;2.95;;
39982;SDS011;25670;44.782;10.356;2023-05-15T02:01:54;3.63;;;3.13;;
39982;SDS011;25670;44.782;10.356;2023-05-15T02:04:24;7.25;;;3.58;;
39982;SDS011;25670;44.782;10.356;2023-05-15T02:06:51;3.95;;;3.35;;
39982;SDS011;25670;44.782;10.356;2023-05-15T02:09:19;5.18;;;3.00;;
39982;SDS011;25670;44.782;10.356;2023-05-15T02:11:46;4.45;;;3.20;;
39982;SDS011;25670;44.782;10.356;2023-05-15T02:14:13;3.35;;;3.15;;
39982;SDS011;25670;44.782;10.356;2023-05-15T02:16:41;6.00;;;3.67;;
39982;SDS011;25670;44.782;10.356;2023-05-15T02:19:08;9.32;;;3.17;;
39982;SDS011;25670;44.782;10.356;2023-05-15T02:21:34;4.88;;;3.08;;
39982;SDS011;25670;44.782;10.356;2023-05-15T02:24:00;4.03;;;2.78;;
39982;SDS011;25670;44.782;10.356;2023-05-15T02:32:28;3.75;;;2.83;;
39982;SDS011;25670;44.782;10.356;2023-05-15T02:35:36;5.65;;;2.92;;
39982;SDS011;25670;44.782;10.356;2023-05-15T02:38:14;3.55;;;3.00;;
39982;SDS011;25670;44.782;10.356;2023-05-15T02:40:42;5.60;;;3.38;;
39982;SDS011;25670;44.782;10.356;2023-05-15T02:43:10;4.05;;;3.10;;
39982;SDS011;25670;44.782;10.356;2023-05-15T02:45:38;6.28;;;2.92;;
39982;SDS011;25670;44.782;10.356;2023-05-15T02:48:05;14.18;;;3.33;;
39982;SDS011;25670;44.782;10.356;2023-05-15T02:50:32;4.22;;;2.78;;
39982;SDS011;25670;44.782;10.356;2023-05-15T02:53:05;5.28;;;3.47;;
39982;SDS011;25670;44.782;10.356;2023-05-15T02:55:32;5.55;;;3.03;;
39982;SDS011;25670;44.782;10.356;2023-05-15T02:57:59;5.72;;;2.95;;
39982;SDS011;25670;44.782;10.356;2023-05-15T03:00:25;6.15;;;4.60;;
39982;SDS011;25670;44.782;10.356;2023-05-15T03:02:51;6.25;;;3.92;;
39982;SDS011;25670;44.782;10.356;2023-05-15T03:05:18;4.53;;;4.18;;
39982;SDS011;25670;44.782;10.356;2023-05-15T03:07:44;13.30;;;4.50;;
39982;SDS011;25670;44.782;10.356;2023-05-15T03:10:10;5.13;;;4.60;;
39982;SDS011;25670;44.782;10.356;2023-05-15T03:12:37;11.93;;;3.83;;
39982;SDS011;25670;44.782;10.356;2023-05-15T03:15:06;10.57;;;3.55;;
39982;SDS011;25670;44.782;10.356;2023-05-15T03:17:34;7.63;;;3.50;;
39982;SDS011;25670;44.782;10.356;2023-05-15T03:20:00;4.55;;;4.13;;
39982;SDS011;25670;44.782;10.356;2023-05-15T03:22:27;7.18;;;3.53;;
39982;SDS011;25670;44.782;10.356;2023-05-15T03:24:53;6.35;;;3.92;;
39982;SDS011;25670;44.782;10.356;2023-05-15T03:27:19;4.03;;;3.72;;
39982;SDS011;25670;44.782;10.356;2023-05-15T03:29:45;5.07;;;4.45;;
39982;SDS011;25670;44.782;10.356;2023-05-15T03:32:13;4.28;;;3.97;;
39982;SDS011;25670;44.782;10.356;2023-05-15T03:34:40;5.60;;;4.15;;
39982;SDS011;25670;44.782;10.356;2023-05-15T03:37:06;4.72;;;4.38;;
39982;SDS011;25670;44.782;10.356;2023-05-15T03:39:32;4.60;;;4.20;;
39982;SDS011;25670;44.782;10.356;2023-05-15T03:41:59;7.50;;;4.47;;
39982;SDS011;25670;44.782;10.356;2023-05-15T03:44:25;3.72;;;3.42;;
39982;SDS011;25670;44.782;10.356;2023-05-15T03:46:51;4.63;;;3.47;;
39982;SDS011;25670;44.782;10.356;2023-05-15T03:49:17;7.72;;;4.00;;
39982;SDS011;25670;44.782;10.356;2023-05-15T03:51:43;7.57;;;4.40;;
39982;SDS011;25670;44.782;10.356;2023-05-15T03:54:12;8.63;;;4.32;;
39982;SDS011;25670;44.782;10.356;2023-05-15T03:56:38;8.20;;;3.55;;
39982;SDS011;25670;44.782;10.356;2023-05-15T03:59:05;5.70;;;3.05;;
39982;SDS011;25670;44.782;10.356;2023-05-15T04:01:31;5.97;;;3.40;;
39982;SDS011;25670;44.782;10.356;2023-05-15T04:03:58;5.88;;;4.55;;
39982;SDS011;25670;44.782;10.356;2023-05-15T04:06:24;8.02;;;4.57;;
39982;SDS011;25670;44.782;10.356;2023-05-15T04:08:50;7.03;;;3.42;;
39982;SDS011;25670;44.782;10.356;2023-05-15T04:11:16;5.30;;;4.63;;
39982;SDS011;25670;44.782;10.356;2023-05-15T04:13:42;5.13;;;4.03;;
39982;SDS011;25670;44.782;10.356;2023-05-15T04:16:09;8.73;;;4.15;;
39982;SDS011;25670;44.782;10.356;2023-05-15T04:18:35;8.68;;;4.03;;
39982;SDS011;25670;44.782;10.356;2023-05-15T04:21:01;8.65;;;4.95;;
39982;SDS011;25670;44.782;10.356;2023-05-15T04:23:28;4.13;;;3.83;;
39982;SDS011;25670;44.782;10.356;2023-05-15T04:25:54;10.82;;;4.82;;
39982;SDS011;25670;44.782;10.356;2023-05-15T04:28:21;11.85;;;5.63;;
39982;SDS011;25670;44.782;10.356;2023-05-15T04:30:47;5.85;;;5.40;;
39982;SDS011;25670;44.782;10.356;2023-05-15T04:33:13;9.07;;;5.82;;
39982;SDS011;25670;44.782;10.356;2023-05-15T04:35:40;4.82;;;4.45;;
39982;SDS011;25670;44.782;10.356;2023-05-15T04:38:06;8.73;;;4.50;;
39982;SDS011;25670;44.782;10.356;2023-05-15T04:40:32;9.10;;;4.95;;
39982;SDS011;25670;44.782;10.356;2023-05-15T04:42:58;14.00;;;4.63;;
39982;SDS011;25670;44.782;10.356;2023-05-15T04:45:25;4.93;;;4.45;;
39982;SDS011;25670;44.782;10.356;2023-05-15T04:47:51;14.27;;;4.70;;
39982;SDS011;25670;44.782;10.356;2023-05-15T04:50:17;9.10;;;5.15;;
39982;SDS011;25670;44.782;10.356;2023-05-15T04:52:43;4.85;;;4.40;;
39982;SDS011;25670;44.782;10.356;2023-05-15T04:55:10;10.00;;;4.45;;
39982;SDS011;25670;44.782;10.356;2023-05-15T04:57:36;8.57;;;4.38;;
39982;SDS011;25670;44.782;10.356;2023-05-15T05:00:03;4.40;;;4.10;;
39982;SDS011;25670;44.782;10.356;2023-05-15T05:02:34;6.78;;;4.05;;
39982;SDS011;25670;44.782;10.356;2023-05-15T05:05:01;9.60;;;4.35;;
39982;SDS011;25670;44.782;10.356;2023-05-15T05:07:27;5.13;;;3.65;;
39982;SDS011;25670;44.782;10.356;2023-05-15T05:09:53;9.65;;;4.18;;
39982;SDS011;25670;44.782;10.356;2023-05-15T05:12:19;3.83;;;3.63;;
39982;SDS011;25670;44.782;10.356;2023-05-15T05:14:46;6.20;;;3.33;;
39982;SDS011;25670;44.782;10.356;2023-05-15T05:17:12;12.57;;;3.15;;
39982;SDS011;25670;44.782;10.356;2023-05-15T05:19:38;6.35;;;2.50;;
39982;SDS011;25670;44.782;10.356;2023-05-15T05:22:05;6.05;;;2.33;;
39982;SDS011;25670;44.782;10.356;2023-05-15T05:24:32;1.98;;;1.83;;
39982;SDS011;25670;44.782;10.356;2023-05-15T05:27:00;2.00;;;1.90;;
39982;SDS011;25670;44.782;10.356;2023-05-15T05:29:26;1.75;;;1.35;;
39982;SDS011;25670;44.782;10.356;2023-05-15T05:31:55;5.22;;;2.65;;
39982;SDS011;25670;44.782;10.356;2023-05-15T05:34:21;2.75;;;1.40;;
39982;SDS011;25670;44.782;10.356;2023-05-15T05:36:48;6.03;;;1.52;;
39982;SDS011;25670;44.782;10.356;2023-05-15T05:39:14;1.65;;;1.20;;
39982;SDS011;25670;44.782;10.356;2023-05-15T05:41:42;2.00;;;1.50;;
39982;SDS011;25670;44.782;10.356;2023-05-15T05:44:08;2.33;;;1.52;;
39982;SDS011;25670;44.782;10.356;2023-05-15T05:46:34;3.78;;;1.48;;
39982;SDS011;25670;44.782;10.356;2023-05-15T05:49:00;1.33;;;1.23;;
39982;SDS011;25670;44.782;10.356;2023-05-15T05:51:27;3.95;;;1.40;;
39982;SDS011;25670;44.782;10.356;2023-05-15T05:53:53;5.13;;;1.10;;
39982;SDS011;25670;44.782;10.356;2023-05-15T05:56:19;1.20;;;1.08;;
39982;SDS011;25670;44.782;10.356;2023-05-15T05:58:48;2.10;;;1.08;;
39982;SDS011;25670;44.782;10.356;2023-05-15T06:01:14;2.92;;;1.08;;
39982;SDS011;25670;44.782;10.356;2023-05-15T06:03:41;3.47;;;1.33;;
39982;SDS011;25670;44.782;10.356;2023-05-15T06:06:08;1.73;;;1.02;;
39982;SDS011;25670;44.782;10.356;2023-05-15T06:08:34;1.27;;;0.90;;
39982;SDS011;25670;44.782;10.356;2023-05-15T06:11:00;0.90;;;0.90;;
39982;SDS011;25670;44.782;10.356;2023-05-15T06:13:26;1.98;;;1.02;;
39982;SDS011;25670;44.782;10.356;2023-05-15T06:15:52;6.43;;;1.30;;
39982;SDS011;25670;44.782;10.356;2023-05-15T06:18:18;3.20;;;0.82;;
39982;SDS011;25670;44.782;10.356;2023-05-15T06:20:45;1.75;;;0.98;;
39982;SDS011;25670;44.782;10.356;2023-05-15T06:23:11;2.35;;;1.25;;
39982;SDS011;25670;44.782;10.356;2023-05-15T06:25:38;3.05;;;2.35;;
39982;SDS011;25670;44.782;10.356;2023-05-15T06:28:04;4.50;;;2.13;;
39982;SDS011;25670;44.782;10.356;2023-05-15T06:30:30;1.92;;;1.77;;
39982;SDS011;25670;44.782;10.356;2023-05-15T06:32:57;4.32;;;2.03;;
39982;SDS011;25670;44.782;10.356;2023-05-15T06:35:23;6.55;;;2.50;;
39982;SDS011;25670;44.782;10.356;2023-05-15T06:37:49;4.03;;;2.78;;
39982;SDS011;25670;44.782;10.356;2023-05-15T06:40:16;3.83;;;2.30;;
39982;SDS011;25670;44.782;10.356;2023-05-15T06:42:43;2.78;;;2.58;;
39982;SDS011;25670;44.782;10.356;2023-05-15T06:45:09;3.38;;;3.03;;
39982;SDS011;25670;44.782;10.356;2023-05-15T06:47:35;5.43;;;2.70;;
39982;SDS011;25670;44.782;10.356;2023-05-15T06:50:03;3.40;;;2.55;;
39982;SDS011;25670;44.782;10.356;2023-05-15T06:52:29;3.17;;;2.92;;
39982;SDS011;25670;44.782;10.356;2023-05-15T06:54:56;4.32;;;3.08;;
39982;SDS011;25670;44.782;10.356;2023-05-15T06:57:22;6.38;;;3.60;;
39982;SDS011;25670;44.782;10.356;2023-05-15T06:59:48;3.53;;;3.10;;
39982;SDS011;25670;44.782;10.356;2023-05-15T07:02:14;4.82;;;3.13;;
39982;SDS011;25670;44.782;10.356;2023-05-15T07:04:41;3.22;;;3.05;;
39982;SDS011;25670;44.782;10.356;2023-05-15T07:07:07;3.30;;;3.10;;
39982;SDS011;25670;44.782;10.356;2023-05-15T07:09:33;3.65;;;3.45;;
39982;SDS011;25670;44.782;10.356;2023-05-15T07:12:00;7.75;;;3.47;;
39982;SDS011;25670;44.782;10.356;2023-05-15T07:14:26;3.33;;;2.95;;
39982;SDS011;25670;44.782;10.356;2023-05-15T07:16:52;3.90;;;3.00;;
39982;SDS011;25670;44.782;10.356;2023-05-15T07:19:18;3.22;;;3.03;;
39982;SDS011;25670;44.782;10.356;2023-05-15T07:21:45;3.95;;;2.60;;
39982;SDS011;25670;44.782;10.356;2023-05-15T07:24:11;2.67;;;2.58;;
39982;SDS011;25670;44.782;10.356;2023-05-15T07:26:37;3.28;;;3.08;;
39982;SDS011;25670;44.782;10.356;2023-05-15T07:29:04;3.58;;;3.08;;
39982;SDS011;25670;44.782;10.356;2023-05-15T07:31:30;3.00;;;2.80;;
39982;SDS011;25670;44.782;10.356;2023-05-15T07:33:58;3.50;;;3.20;;
39982;SDS011;25670;44.782;10.356;2023-05-15T07:36:24;4.63;;;2.90;;
39982;SDS011;25670;44.782;10.356;2023-05-15T07:38:50;2.97;;;2.75;;
39982;SDS011;25670;44.782;10.356;2023-05-15T07:41:16;2.65;;;2.45;;
39982;SDS011;25670;44.782;10.356;2023-05-15T07:43:43;2.45;;;2.25;;
39982;SDS011;25670;44.782;10.356;2023-05-15T07:46:09;5.78;;;1.88;;
39982;SDS011;25670;44.782;10.356;2023-05-15T07:48:35;2.45;;;2.08;;
39982;SDS011;25670;44.782;10.356;2023-05-15T07:51:02;5.38;;;1.80;;
39982;SDS011;25670;44.782;10.356;2023-05-15T07:53:28;2.10;;;1.90;;
39982;SDS011;25670;44.782;10.356;2023-05-15T07:55:54;2.78;;;2.42;;
39982;SDS011;25670;44.782;10.356;2023-05-15T07:58:21;8.13;;;1.98;;
39982;SDS011;25670;44.782;10.356;2023-05-15T08:00:47;2.40;;;2.20;;
39982;SDS011;25670;44.782;10.356;2023-05-15T08:03:13;2.67;;;2.47;;
39982;SDS011;25670;44.782;10.356;2023-05-15T08:05:40;3.45;;;2.60;;
39982;SDS011;25670;44.782;10.356;2023-05-15T08:08:06;6.75;;;3.30;;
39982;SDS011;25670;44.782;10.356;2023-05-15T08:10:32;2.45;;;2.08;;
39982;SDS011;25670;44.782;10.356;2023-05-15T08:12:58;2.65;;;2.45;;
39982;SDS011;25670;44.782;10.356;2023-05-15T08:15:25;6.30;;;2.70;;
39982;SDS011;25670;44.782;10.356;2023-05-15T08:17:51;7.93;;;2.70;;
39982;SDS011;25670;44.782;10.356;2023-05-15T08:20:17;2.35;;;2.20;;
39982;SDS011;25670;44.782;10.356;2023-05-15T08:22:43;2.88;;;2.67;;
39982;SDS011;25670;44.782;10.356;2023-05-15T08:25:10;2.55;;;2.35;;
39982;SDS011;25670;44.782;10.356;2023-05-15T08:27:36;4.05;;;2.58;;
39982;SDS011;25670;44.782;10.356;2023-05-15T08:30:02;2.72;;;2.40;;
39982;SDS011;25670;44.782;10.356;2023-05-15T08:32:29;3.03;;;1.90;;
39982;SDS011;25670;44.782;10.356;2023-05-15T08:34:55;4.88;;;2.22;;
39982;SDS011;25670;44.782;10.356;2023-05-15T08:37:22;9.45;;;2.30;;
39982;SDS011;25670;44.782;10.356;2023-05-15T08:39:48;2.03;;;1.92;;
39982;SDS011;25670;44.782;10.356;2023-05-15T08:44:44;5.53;;;2.67;;
39982;SDS011;25670;44.782;10.356;2023-05-15T08:47:10;5.22;;;2.40;;
39982;SDS011;25670;44.782;10.356;2023-05-15T08:52:29;2.50;;;2.38;;
39982;SDS011;25670;44.782;10.356;2023-05-15T08:54:57;2.30;;;2.10;;
39982;SDS011;25670;44.782;10.356;2023-05-15T08:57:24;4.90;;;2.40;;
39982;SDS011;25670;44.782;10.356;2023-05-15T08:59:53;4.53;;;2.15;;
39982;SDS011;25670;44.782;10.356;2023-05-15T09:02:20;3.00;;;1.88;;
39982;SDS011;25670;44.782;10.356;2023-05-15T09:04:46;3.72;;;2.25;;
39982;SDS011;25670;44.782;10.356;2023-05-15T09:07:13;8.00;;;2.08;;
39982;SDS011;25670;44.782;10.356;2023-05-15T09:09:41;2.00;;;1.88;;
39982;SDS011;25670;44.782;10.356;2023-05-15T09:12:15;3.40;;;2.25;;
39982;SDS011;25670;44.782;10.356;2023-05-15T09:14:42;1.90;;;1.80;;
39982;SDS011;25670;44.782;10.356;2023-05-15T09:17:09;2.25;;;2.13;;
39982;SDS011;25670;44.782;10.356;2023-05-15T09:19:39;2.40;;;2.28;;
39982;SDS011;25670;44.782;10.356;2023-05-15T09:22:16;2.30;;;2.10;;
39982;SDS011;25670;44.782;10.356;2023-05-15T09:24:51;6.50;;;2.17;;
39982;SDS011;25670;44.782;10.356;2023-05-15T09:27:18;2.60;;;2.40;;
39982;SDS011;25670;44.782;10.356;2023-05-15T09:29:45;2.20;;;2.10;;
39982;SDS011;25670;44.782;10.356;2023-05-15T09:32:12;2.13;;;2.03;;
39982;SDS011;25670;44.782;10.356;2023-05-15T09:34:40;4.18;;;2.08;;
39982;SDS011;25670;44.782;10.356;2023-05-15T09:37:08;3.08;;;1.92;;
39982;SDS011;25670;44.782;10.356;2023-05-15T09:39:39;3.72;;;2.30;;
39982;SDS011;25670;44.782;10.356;2023-05-15T09:42:12;2.03;;;1.92;;
39982;SDS011;25670;44.782;10.356;2023-05-15T09:44:39;4.03;;;2.00;;
39982;SDS011;25670;44.782;10.356;2023-05-15T09:47:10;2.93;;;2.10;;
39982;SDS011;25670;44.782;10.356;2023-05-15T09:49:38;3.40;;;2.15;;
39982;SDS011;25670;44.782;10.356;2023-05-15T09:52:08;3.75;;;1.77;;
39982;SDS011;25670;44.782;10.356;2023-05-15T09:54:35;1.55;;;1.45;;
39982;SDS011;25670;44.782;10.356;2023-05-15T09:57:08;1.75;;;1.65;;
39982;SDS011;25670;44.782;10.356;2023-05-15T09:59:43;3.55;;;1.60;;
39982;SDS011;25670;44.782;10.356;2023-05-15T10:02:21;3.55;;;1.83;;
39982;SDS011;25670;44.782;10.356;2023-05-15T10:04:57;2.33;;;2.13;;
39982;SDS011;25670;44.782;10.356;2023-05-15T10:07:27;2.65;;;2.45;;
39982;SDS011;25670;44.782;10.356;2023-05-15T10:09:57;2.33;;;2.22;;
39982;SDS011;25670;44.782;10.356;2023-05-15T10:12:24;2.72;;;2.40;;
39982;SDS011;25670;44.782;10.356;2023-05-15T10:14:52;3.55;;;2.10;;
39982;SDS011;25670;44.782;10.356;2023-05-15T10:17:20;1.90;;;1.70;;
39982;SDS011;25670;44.782;10.356;2023-05-15T10:19:48;2.25;;;2.15;;
39982;SDS011;25670;44.782;10.356;2023-05-15T10:22:20;2.85;;;2.40;;
39982;SDS011;25670;44.782;10.356;2023-05-15T10:24:50;2.35;;;2.15;;
39982;SDS011;25670;44.782;10.356;2023-05-15T10:27:33;2.50;;;2.28;;
39982;SDS011;25670;44.782;10.356;2023-05-15T10:30:02;2.58;;;2.00;;
39982;SDS011;25670;44.782;10.356;2023-05-15T10:32:28;2.53;;;2.33;;
39982;SDS011;25670;44.782;10.356;2023-05-15T10:34:55;4.47;;;2.30;;
39982;SDS011;25670;44.782;10.356;2023-05-15T10:37:22;2.45;;;2.35;;
39982;SDS011;25670;44.782;10.356;2023-05-15T10:39:49;2.50;;;2.30;;
39982;SDS011;25670;44.782;10.356;2023-05-15T10:42:18;2.30;;;2.20;;
39982;SDS011;25670;44.782;10.356;2023-05-15T10:44:45;2.55;;;2.35;;
39982;SDS011;25670;44.782;10.356;2023-05-15T10:47:12;5.63;;;1.92;;
39982;SDS011;25670;44.782;10.356;2023-05-15T10:49:40;3.05;;;1.85;;
39982;SDS011;25670;44.782;10.356;2023-05-15T10:52:06;2.30;;;1.77;;
39982;SDS011;25670;44.782;10.356;2023-05-15T10:54:33;2.90;;;1.70;;
39982;SDS011;25670;44.782;10.356;2023-05-15T10:57:00;2.00;;;1.90;;
39982;SDS011;25670;44.782;10.356;2023-05-15T10:59:30;1.60;;;1.50;;
39982;SDS011;25670;44.782;10.356;2023-05-15T11:02:10;2.10;;;1.40;;
39982;SDS011;25670;44.782;10.356;2023-05-15T11:04:58;8.45;;;2.03;;
39982;SDS011;25670;44.782;10.356;2023-05-15T11:07:26;2.88;;;1.85;;
39982;SDS011;25670;44.782;10.356;2023-05-15T11:09:53;2.38;;;1.88;;
39982;SDS011;25670;44.782;10.356;2023-05-15T11:12:20;4.75;;;2.50;;
39982;SDS011;25670;44.782;10.356;2023-05-15T11:17:17;3.08;;;2.80;;
39982;SDS011;25670;44.782;10.356;2023-05-15T11:22:25;2.47;;;2.28;;
39982;SDS011;25670;44.782;10.356;2023-05-15T11:27:25;2.67;;;2.47;;
39982;SDS011;25670;44.782;10.356;2023-05-15T11:32:42;2.30;;;2.20;;
39982;SDS011;25670;44.782;10.356;2023-05-15T11:35:10;8.90;;;2.20;;
39982;SDS011;25670;44.782;10.356;2023-05-15T11:40:48;1.35;;;1.23;;
39982;SDS011;25670;44.782;10.356;2023-05-15T11:43:18;1.60;;;1.50;;
39982;SDS011;25670;44.782;10.356;2023-05-15T11:45:45;1.60;;;1.50;;
39982;SDS011;25670;44.782;10.356;2023-05-15T11:48:14;1.75;;;1.58;;
39982;SDS011;25670;44.782;10.356;2023-05-15T11:50:41;0.93;;;0.93;;
39982;SDS011;25670;44.782;10.356;2023-05-15T11:53:09;1.40;;;1.30;;
39982;SDS011;25670;44.782;10.356;2023-05-15T11:55:35;1.48;;;1.33;;
39982;SDS011;25670;44.782;10.356;2023-05-15T11:58:05;2.15;;;0.82;;
39982;SDS011;25670;44.782;10.356;2023-05-15T12:00:37;1.70;;;1.08;;
39982;SDS011;25670;44.782;10.356;2023-05-15T12:03:05;1.55;;;1.23;;
39982;SDS011;25670;44.782;10.356;2023-05-15T12:05:38;1.40;;;1.30;;
39982;SDS011;25670;44.782;10.356;2023-05-15T12:08:12;1.05;;;1.02;;
39982;SDS011;25670;44.782;10.356;2023-05-15T12:10:39;1.25;;;1.20;;
39982;SDS011;25670;44.782;10.356;2023-05-15T12:13:12;2.60;;;1.25;;
39982;SDS011;25670;44.782;10.356;2023-05-15T12:15:41;1.17;;;1.10;;
39982;SDS011;25670;44.782;10.356;2023-05-15T12:18:08;1.90;;;1.48;;
39982;SDS011;25670;44.782;10.356;2023-05-15T12:20:35;0.60;;;0.60;;
39982;SDS011;25670;44.782;10.356;2023-05-15T12:23:04;0.65;;;0.65;;
39982;SDS011;25670;44.782;10.356;2023-05-15T12:25:34;1.33;;;1.00;;
39982;SDS011;25670;44.782;10.356;2023-05-15T12:28:02;3.17;;;0.80;;
39982;SDS011;25670;44.782;10.356;2023-05-15T12:30:29;1.38;;;1.13;;
39982;SDS011;25670;44.782;10.356;2023-05-15T12:33:03;2.45;;;1.15;;
39982;SDS011;25670;44.782;10.356;2023-05-15T12:35:32;1.20;;;1.13;;
39982;SDS011;25670;44.782;10.356;2023-05-15T12:38:03;1.20;;;1.20;;
39982;SDS011;25670;44.782;10.356;2023-05-15T12:40:33;1.60;;;1.10;;
39982;SDS011;25670;44.782;10.356;2023-05-15T12:43:06;1.00;;;0.90;;
39982;SDS011;25670;44.782;10.356;2023-05-15T12:45:34;1.30;;;1.20;;
39982;SDS011;25670;44.782;10.356;2023-05-15T12:48:03;1.38;;;1.27;;
39982;SDS011;25670;44.782;10.356;2023-05-15T12:50:33;1.08;;;1.02;;
39982;SDS011;25670;44.782;10.356;2023-05-15T12:53:01;6.40;;;2.17;;
39982;SDS011;25670;44.782;10.356;2023-05-15T12:55:29;1.35;;;1.00;;
39982;SDS011;25670;44.782;10.356;2023-05-15T12:57:57;1.08;;;1.08;;
39982;SDS011;25670;44.782;10.356;2023-05-15T13:00:29;0.90;;;0.80;;
39982;SDS011;25670;44.782;10.356;2023-05-15T13:02:56;3.25;;;0.73;;
39982;SDS011;25670;44.782;10.356;2023-05-15T13:05:33;1.02;;;1.02;;
39982;SDS011;25670;44.782;10.356;2023-05-15T13:08:01;1.88;;;0.60;;
39982;SDS011;25670;44.782;10.356;2023-05-15T13:10:32;0.77;;;0.77;;
39982;SDS011;25670;44.782;10.356;2023-05-15T13:12:59;1.58;;;0.50;;
39982;SDS011;25670;44.782;10.356;2023-05-15T13:15:32;2.58;;;1.08;;
39982;SDS011;25670;44.782;10.356;2023-05-15T13:20:37;2.92;;;0.75;;
39982;SDS011;25670;44.782;10.356;2023-05-15T13:23:16;2.28;;;0.70;;
39982;SDS011;25670;44.782;10.356;2023-05-15T13:25:43;0.63;;;0.38;;
39982;SDS011;25670;44.782;10.356;2023-05-15T13:28:10;3.35;;;0.68;;
39982;SDS011;25670;44.782;10.356;2023-05-15T13:30:36;0.93;;;0.75;;
39982;SDS011;25670;44.782;10.356;2023-05-15T13:33:09;0.52;;;0.52;;
39982;SDS011;25670;44.782;10.356;2023-05-15T13:35:37;0.40;;;0.40;;
39982;SDS011;25670;44.782;10.356;2023-05-15T13:38:04;0.75;;;0.75;;
39982;SDS011;25670;44.782;10.356;2023-05-15T13:40:30;0.95;;;0.90;;
39982;SDS011;25670;44.782;10.356;2023-05-15T13:43:02;0.88;;;0.88;;
39982;SDS011;25670;44.782;10.356;2023-05-15T13:45:28;2.15;;;0.80;;
39982;SDS011;25670;44.782;10.356;2023-05-15T13:47:54;0.85;;;0.75;;
39982;SDS011;25670;44.782;10.356;2023-05-15T13:50:20;0.73;;;0.73;;
39982;SDS011;25670;44.782;10.356;2023-05-15T13:52:47;1.38;;;0.85;;
39982;SDS011;25670;44.782;10.356;2023-05-15T13:55:13;0.77;;;0.77;;
39982;SDS011;25670;44.782;10.356;2023-05-15T13:57:40;0.75;;;0.75;;
39982;SDS011;25670;44.782;10.356;2023-05-15T14:00:07;0.80;;;0.80;;
39982;SDS011;25670;44.782;10.356;2023-05-15T14:02:38;2.42;;;1.13;;
39982;SDS011;25670;44.782;10.356;2023-05-15T14:05:05;0.50;;;0.50;;
39982;SDS011;25670;44.782;10.356;2023-05-15T14:07:32;4.90;;;0.60;;
39982;SDS011;25670;44.782;10.356;2023-05-15T14:09:58;2.20;;;0.80;;
39982;SDS011;25670;44.782;10.356;2023-05-15T14:12:24;1.13;;;1.00;;
39982;SDS011;25670;44.782;10.356;2023-05-15T14:14:51;0.77;;;0.57;;
39982;SDS011;25670;44.782;10.356;2023-05-15T14:17:17;0.63;;;0.40;;
39982;SDS011;25670;44.782;10.356;2023-05-15T14:19:43;0.50;;;0.50;;
39982;SDS011;25670;44.782;10.356;2023-05-15T14:22:09;0.52;;;0.52;;
39982;SDS011;25670;44.782;10.356;2023-05-15T14:24:36;1.30;;;0.60;;
39982;SDS011;25670;44.782;10.356;2023-05-15T14:27:02;2.20;;;0.50;;
39982;SDS011;25670;44.782;10.356;2023-05-15T14:29:28;0.63;;;0.55;;
39982;SDS011;25670;44.782;10.356;2023-05-15T14:31:54;2.17;;;0.60;;
39982;SDS011;25670;44.782;10.356;2023-05-15T14:34:21;1.25;;;0.60;;
39982;SDS011;25670;44.782;10.356;2023-05-15T14:36:48;2.92;;;0.73;;
39982;SDS011;25670;44.782;10.356;2023-05-15T14:39:15;1.17;;;0.93;;
39982;SDS011;25670;44.782;10.356;2023-05-15T14:41:42;0.50;;;0.47;;
39982;SDS011;25670;44.782;10.356;2023-05-15T14:44:09;1.15;;;0.82;;
39982;SDS011;25670;44.782;10.356;2023-05-15T14:46:35;0.82;;;0.80;;
39982;SDS011;25670;44.782;10.356;2023-05-15T14:49:02;0.77;;;0.52;;
39982;SDS011;25670;44.782;10.356;2023-05-15T14:51:29;1.23;;;0.70;;
39982;SDS011;25670;44.782;10.356;2023-05-15T14:53:56;0.75;;;0.55;;
39982;SDS011;25670;44.782;10.356;2023-05-15T14:56:23;0.80;;;0.77;;
39982;SDS011;25670;44.782;10.356;2023-05-15T14:58:49;1.23;;;0.80;;
39982;SDS011;25670;44.782;10.356;2023-05-15T15:01:16;2.05;;;0.70;;
39982;SDS011;25670;44.782;10.356;2023-05-15T15:03:42;0.60;;;0.60;;
39982;SDS011;25670;44.782;10.356;2023-05-15T15:06:09;2.80;;;0.80;;
39982;SDS011;25670;44.782;10.356;2023-05-15T15:08:35;2.25;;;1.27;;
39982;SDS011;25670;44.782;10.356;2023-05-15T15:11:02;1.25;;;1.17;;